Time;durP1;ratioP1;P1;durP2;ratioP2;P2;SDS_P1;SDS_P2;PMS_P1;PMS_P2;Temp;Humidity;BMP_temperature;BMP_pressure;BME280_temperature;BME280_humidity;BME280_pressure;Samples;Min_cycle;Max_cycle;Signal;HPM_P1;HPM_P2
2023/09/06 00:00:04;;;;;;;42.60;5.43;;;;;;;23.20;55.76;100048.84;7311224;19;129458;-40
2023/09/06 00:02:31;;;;;;;33.45;4.35;;;;;;;23.30;55.31;100064.59;7313245;19;129527;-41
2023/09/06 00:04:57;;;;;;;44.47;5.10;;;;;;;23.31;54.92;100061.00;7312358;19;129077;-40
2023/09/06 00:07:23;;;;;;;61.57;6.33;;;;;;;23.32;55.25;100052.97;7314056;19;128898;-41
2023/09/06 00:09:48;;;;;;;48.50;5.63;;;;;;;23.31;55.88;100051.34;7313257;19;129203;-38
2023/09/06 00:12:13;;;;;;;28.63;4.70;;;;;;;23.30;55.24;100048.84;7312846;19;129711;-37
2023/09/06 00:14:39;;;;;;;28.73;4.30;;;;;;;23.27;55.47;100046.50;7315002;19;131863;-40
2023/09/06 00:17:05;;;;;;;93.57;8.00;;;;;;;23.29;54.82;100048.00;7313414;19;129459;-40
2023/09/06 00:19:30;;;;;;;29.17;4.53;;;;;;;23.26;55.14;100053.50;7313823;19;130095;-39
2023/09/06 00:21:58;;;;;;;75.80;6.83;;;;;;;23.27;55.95;100049.94;7313129;19;129196;-34
2023/09/06 00:24:24;;;;;;;33.22;4.70;;;;;;;23.27;55.59;100052.56;7314066;19;129839;-38
2023/09/06 00:26:49;;;;;;;97.40;8.07;;;;;;;23.27;55.40;100052.56;7314549;19;128997;-41
2023/09/06 00:29:15;;;;;;;42.53;5.03;;;;;;;23.27;55.84;100049.94;7313544;19;131133;-40
2023/09/06 00:31:40;;;;;;;35.83;4.70;;;;;;;23.14;55.68;100031.00;7314761;19;129649;-41
2023/09/06 00:34:05;;;;;;;44.30;5.13;;;;;;;23.27;55.58;100055.19;7311114;19;129271;-41
2023/09/06 00:36:32;;;;;;;64.00;6.03;;;;;;;23.29;55.08;100053.25;7315086;19;128824;-36
2023/09/06 00:38:58;;;;;;;51.22;5.70;;;;;;;23.27;54.94;100054.38;7312567;19;131040;-38
2023/09/06 00:41:24;;;;;;;30.53;4.90;;;;;;;23.26;55.74;100056.13;7314758;19;130705;-41
2023/09/06 00:43:50;;;;;;;44.50;5.50;;;;;;;23.26;55.39;100056.13;7313501;19;131110;-37
2023/09/06 00:46:17;;;;;;;63.13;5.90;;;;;;;23.26;55.33;100048.28;7312923;19;129167;-42
2023/09/06 00:48:43;;;;;;;63.42;6.22;;;;;;;23.25;55.99;100052.69;7312119;19;129717;-42
2023/09/06 00:51:09;;;;;;;40.40;5.17;;;;;;;23.23;55.76;100043.31;7312628;19;130969;-40
2023/09/06 00:53:35;;;;;;;48.00;5.45;;;;;;;23.27;55.82;100054.38;7313377;19;129209;-39
2023/09/06 00:56:03;;;;;;;83.33;6.93;;;;;;;23.29;55.07;100057.72;7311003;19;129323;-41
2023/09/06 00:58:29;;;;;;;24.92;3.83;;;;;;;23.27;55.68;100059.63;7312937;19;129134;-39
2023/09/06 01:00:55;;;;;;;41.05;5.00;;;;;;;23.25;56.51;100054.50;7312956;19;130638;-41
2023/09/06 01:03:21;;;;;;;45.03;5.30;;;;;;;23.24;55.89;100055.44;7310805;19;129079;-42
2023/09/06 01:05:51;;;;;;;44.03;5.00;;;;;;;23.25;56.37;100059.75;7311435;19;129197;-38
2023/09/06 01:08:24;;;;;;;43.60;4.80;;;;;;;23.25;56.75;100062.38;7310194;19;131412;-40
2023/09/06 01:10:50;;;;;;;27.88;4.30;;;;;;;23.24;55.16;100056.28;7313127;19;129495;-38
2023/09/06 01:13:15;;;;;;;48.10;5.30;;;;;;;23.23;55.76;100059.88;7311454;19;130320;-41
2023/09/06 01:15:44;;;;;;;44.23;4.97;;;;;;;23.23;56.34;100059.88;7312116;19;129075;-38
2023/09/06 01:18:12;;;;;;;56.80;5.78;;;;;;;23.24;55.48;100060.69;7311041;19;129328;-38
2023/09/06 01:20:42;;;;;;;58.92;5.68;;;;;;;23.23;55.24;100059.03;7308090;19;129766;-40
2023/09/06 01:23:33;;;;;;;40.28;5.30;;;;;;;23.19;57.99;100055.88;7311996;19;129236;-40
2023/09/06 01:25:58;;;;;;;44.53;5.25;;;;;;;23.21;55.17;100058.34;7309993;19;129224;-38
2023/09/06 01:28:27;;;;;;;54.63;5.47;;;;;;;23.24;55.57;100060.69;7311152;19;129160;-42
2023/09/06 01:30:56;;;;;;;44.88;4.70;;;;;;;23.22;56.52;100057.41;7311165;19;131028;-40
2023/09/06 01:33:24;;;;;;;31.65;4.53;;;;;;;23.22;55.43;100054.78;7311961;19;128917;-37
2023/09/06 01:35:51;;;;;;;18.23;3.85;;;;;;;23.19;54.88;100058.50;7312392;19;129035;-41
2023/09/06 01:38:16;;;;;;;31.98;4.25;;;;;;;23.23;55.57;100059.03;7311198;19;129993;-42
2023/09/06 01:40:42;;;;;;;56.10;5.63;;;;;;;23.20;55.08;100054.09;7312425;19;131321;-38
2023/09/06 01:43:08;;;;;;;54.53;5.85;;;;;;;23.21;55.39;100060.97;7311698;19;130644;-40
2023/09/06 01:45:35;;;;;;;49.00;5.73;;;;;;;23.20;55.02;100073.25;7307749;19;129689;-41
2023/09/06 01:48:02;;;;;;;;;;;;;;;23.24;58.06;100060.69;7310804;19;130363;-41
2023/09/06 01:50:28;;;;;;;71.30;6.35;;;;;;;23.21;55.21;100074.94;7311255;19;129576;-40
2023/09/06 01:52:55;;;;;;;46.77;4.83;;;;;;;23.21;55.03;100066.22;7311516;19;129330;-38
2023/09/06 01:55:21;;;;;;;43.13;4.93;;;;;;;23.09;55.07;100048.94;7310868;19;129109;-39
2023/09/06 01:57:46;;;;;;;52.15;5.35;;;;;;;23.21;55.58;100072.31;7311102;19;130286;-41
2023/09/06 02:00:28;;;;;;;62.47;6.17;;;;;;;23.19;55.44;100062.91;7310168;19;129243;-38
2023/09/06 02:02:59;;;;;;;24.98;4.22;;;;;;;23.20;56.22;100080.31;7311863;19;129037;-39
2023/09/06 02:05:25;;;;;;;31.17;4.43;;;;;;;23.18;55.28;100071.75;7308406;19;129465;-38
2023/09/06 02:07:50;;;;;;;40.83;5.03;;;;;;;23.18;55.10;100061.25;7308710;19;129292;-38
2023/09/06 02:10:16;;;;;;;48.92;5.63;;;;;;;23.17;55.50;100064.84;7311513;19;130957;-38
2023/09/06 02:12:42;;;;;;;54.43;5.57;;;;;;;23.17;55.93;100064.84;7311665;19;128860;-40
2023/09/06 02:15:08;;;;;;;62.23;6.13;;;;;;;23.18;55.42;100061.25;7309354;19;129479;-42
2023/09/06 02:17:35;;;;;;;32.30;4.75;;;;;;;23.18;55.39;100062.09;7306881;19;129203;-39
2023/09/06 02:20:13;;;;;;;;;;;;;;;23.22;57.84;100062.66;7306868;19;129829;-38
2023/09/06 02:22:40;;;;;;;68.38;5.95;;;;;;;23.19;54.70;100062.91;7309796;19;128947;-40
2023/09/06 02:25:08;;;;;;;64.05;5.97;;;;;;;23.18;54.84;100069.97;7310228;19;129374;-41
2023/09/06 02:27:33;;;;;;;39.30;5.10;;;;;;;23.16;55.63;100057.94;7309016;19;130332;-37
2023/09/06 02:29:59;;;;;;;31.57;4.33;;;;;;;23.15;54.73;100054.47;7307824;19;129322;-37
2023/09/06 02:32:26;;;;;;;70.68;6.03;;;;;;;23.16;55.26;100068.44;7310988;19;128881;-36
2023/09/06 02:34:51;;;;;;;34.40;4.53;;;;;;;23.15;55.20;100066.78;7312124;19;129351;-42
2023/09/06 02:37:17;;;;;;;46.83;5.23;;;;;;;23.16;54.75;100071.06;7310094;19;129399;-38
2023/09/06 02:39:42;;;;;;;49.13;5.30;;;;;;;23.16;55.17;100071.06;7307075;19;132212;-41
2023/09/06 02:42:07;;;;;;;71.47;6.33;;;;;;;23.16;55.39;100071.06;7310416;19;130900;-39
2023/09/06 02:44:32;;;;;;;30.17;4.03;;;;;;;23.15;54.69;100074.66;7311049;19;129251;-39
2023/09/06 02:46:58;;;;;;;90.47;8.20;;;;;;;23.17;54.96;100070.09;7307949;19;129923;-38
2023/09/06 02:49:26;;;;;;;52.23;6.27;;;;;;;23.15;55.28;100077.28;7306033;19;129674;-41
2023/09/06 02:51:51;;;;;;;49.75;5.18;;;;;;;23.12;54.77;100067.06;7308847;19;130049;-38
2023/09/06 02:54:17;;;;;;;34.63;4.43;;;;;;;23.14;55.11;100070.34;7310072;19;129288;-40
2023/09/06 02:56:45;;;;;;;19.65;3.85;;;;;;;23.13;55.04;100069.53;7309741;19;130316;-39
2023/09/06 02:59:14;;;;;;;76.78;6.65;;;;;;;23.13;55.85;100068.72;7307211;19;130251;-41
2023/09/06 03:01:47;;;;;;;64.38;6.30;;;;;;;23.13;54.76;100066.91;7308976;19;129281;-40
2023/09/06 03:04:13;;;;;;;49.58;5.28;;;;;;;23.13;54.86;100069.53;7309133;19;129198;-41
2023/09/06 03:06:39;;;;;;;25.77;3.88;;;;;;;23.14;55.11;100070.34;7309918;19;129964;-40
2023/09/06 03:09:07;;;;;;;43.42;5.00;;;;;;;23.14;54.11;100065.94;7306904;19;130661;-36
2023/09/06 03:11:33;;;;;;;63.45;5.93;;;;;;;23.12;54.86;100073.13;7309313;19;129118;-38
2023/09/06 03:13:58;;;;;;;41.20;4.23;;;;;;;23.11;53.83;100070.63;7309631;19;129091;-39
2023/09/06 03:16:24;;;;;;;64.90;5.97;;;;;;;23.13;54.91;100079.19;7308228;19;129648;-41
2023/09/06 03:18:50;;;;;;;45.90;4.70;;;;;;;23.12;54.92;100082.81;7310258;19;129157;-38
2023/09/06 03:21:17;;;;;;;81.07;6.83;;;;;;;23.09;54.73;100075.19;7315172;19;129439;-41
2023/09/06 03:23:45;;;;;;;42.78;4.75;;;;;;;23.01;55.31;100059.31;7314731;19;128965;-40
2023/09/06 03:26:10;;;;;;;40.08;5.00;;;;;;;23.14;54.12;100075.59;7312811;19;130097;-39
2023/09/06 03:28:40;;;;;;;31.97;4.17;;;;;;;23.13;54.23;100085.28;7314391;19;130121;-40
2023/09/06 03:31:09;;;;;;;87.00;6.97;;;;;;;23.11;54.89;100084.59;7316646;19;129232;-40
2023/09/06 03:33:35;;;;;;;42.15;4.57;;;;;;;23.11;55.32;100078.50;7317912;19;129956;-40
2023/09/06 03:36:07;;;;;;;17.85;3.38;;;;;;;23.09;54.96;100078.66;7315176;19;129907;-38
2023/09/06 03:38:33;;;;;;;33.22;4.13;;;;;;;23.11;55.01;100092.47;7313440;19;130497;-41
2023/09/06 03:41:02;;;;;;;73.93;6.47;;;;;;;23.09;55.20;100086.50;7315022;19;129056;-39
2023/09/06 03:43:32;;;;;;;60.95;5.93;;;;;;;23.09;55.08;100083.06;7315518;19;129514;-42
2023/09/06 03:45:58;;;;;;;20.00;3.58;;;;;;;23.07;54.80;100091.06;7311989;19;129269;-39
2023/09/06 03:48:27;;;;;;;31.27;3.90;;;;;;;23.09;54.06;100088.28;7312000;19;131261;-38
2023/09/06 03:50:57;;;;;;;56.78;5.55;;;;;;;23.08;56.01;100091.91;7313305;19;129777;-42
2023/09/06 03:53:25;;;;;;;57.17;5.40;;;;;;;23.08;54.08;100097.97;7315234;19;129015;-40
2023/09/06 03:55:51;;;;;;;99.32;8.52;;;;;;;23.09;54.11;100096.16;7313489;19;130245;-38
2023/09/06 03:58:16;;;;;;;55.97;5.50;;;;;;;23.06;54.96;100099.91;7309097;19;129783;-39
2023/09/06 04:00:44;;;;;;;39.13;4.85;;;;;;;23.07;54.65;100095.50;7314633;19;130151;-41
2023/09/06 04:03:13;;;;;;;141.32;10.25;;;;;;;23.07;54.88;100092.88;7310759;19;129462;-40
2023/09/06 04:05:40;;;;;;;33.67;4.40;;;;;;;23.06;55.04;100096.44;7312222;19;130289;-40
2023/09/06 04:08:07;;;;;;;48.45;5.28;;;;;;;23.06;54.98;100089.41;7311964;19;129116;-41
2023/09/06 04:10:36;;;;;;;41.53;4.65;;;;;;;23.08;54.43;100092.75;7312594;19;129855;-39
2023/09/06 04:13:05;;;;;;;64.13;6.03;;;;;;;23.09;54.57;100090.91;7314149;19;129566;-41
2023/09/06 04:15:34;;;;;;;43.47;4.80;;;;;;;23.08;54.21;100094.53;7314723;19;129781;-40
2023/09/06 04:18:01;;;;;;;64.70;6.60;;;;;;;23.06;54.32;100089.41;7312553;19;130435;-40
2023/09/06 04:20:35;;;;;;;;;;;;;;;23.10;57.60;100095.22;7313172;19;129698;-40
2023/09/06 04:23:04;;;;;;;60.45;5.93;;;;;;;23.08;55.27;100097.16;7311829;19;129353;-40
2023/09/06 04:25:33;;;;;;;55.78;5.45;;;;;;;23.08;54.56;100091.91;7311508;19;131201;-36
2023/09/06 04:27:59;;;;;;;19.02;3.83;;;;;;;23.08;54.59;100091.91;7314351;19;131197;-38
2023/09/06 04:30:33;;;;;;;76.63;7.30;;;;;;;23.08;54.99;100097.16;7311826;19;129389;-42
2023/09/06 04:32:58;;;;;;;41.83;5.13;;;;;;;23.08;55.07;100091.91;7305886;19;129561;-38
2023/09/06 04:35:43;;;;;;;74.63;6.67;;;;;;;23.06;56.99;100099.06;7311377;19;129942;-40
2023/09/06 04:38:09;;;;;;;75.57;6.30;;;;;;;23.05;54.76;100095.63;7311578;19;130608;-41
2023/09/06 04:40:35;;;;;;;47.40;5.95;;;;;;;23.06;54.62;100091.19;7307019;19;131347;-40
2023/09/06 04:43:01;;;;;;;56.10;5.87;;;;;;;23.04;55.13;100098.38;7307269;19;129300;-41
2023/09/06 04:45:26;;;;;;;43.73;5.20;;;;;;;23.07;54.53;100103.38;7310033;19;129678;-39
2023/09/06 04:47:52;;;;;;;85.00;6.97;;;;;;;23.11;54.96;100107.34;7310275;19;129444;-39
2023/09/06 04:50:18;;;;;;;81.50;6.77;;;;;;;23.11;54.72;100102.09;7301590;19;129614;-40
2023/09/06 04:52:45;;;;;;;63.70;6.33;;;;;;;23.06;55.91;100110.41;7309121;19;129539;-39
2023/09/06 04:55:12;;;;;;;81.07;6.78;;;;;;;23.05;55.20;100115.78;7310535;19;129392;-41
2023/09/06 04:57:39;;;;;;;87.57;7.15;;;;;;;23.05;55.26;100118.41;7309148;19;129875;-40
2023/09/06 05:00:30;;;;;;;33.10;4.22;;;;;;;23.04;56.82;100117.56;7309074;19;129049;-40
2023/09/06 05:02:57;;;;;;;42.08;4.75;;;;;;;23.04;54.86;100112.31;7311626;19;128919;-41
2023/09/06 05:05:23;;;;;;;49.33;5.07;;;;;;;23.01;55.03;100117.84;7307323;19;130169;-37
2023/09/06 05:07:49;;;;;;;;;;;;;;;22.93;57.34;100099.34;7311158;19;129397;-37
2023/09/06 05:10:14;;;;;;;88.40;7.13;;;;;;;23.03;55.25;100121.16;7306261;19;130294;-39
2023/09/06 05:12:40;;;;;;;31.93;4.03;;;;;;;23.04;54.76;100128.06;7312138;19;129404;-41
2023/09/06 05:15:06;;;;;;;46.83;5.70;;;;;;;23.03;54.92;100115.91;7310178;19;129013;-41
2023/09/06 05:17:35;;;;;;;42.50;5.35;;;;;;;23.05;54.30;100118.41;7303950;19;131295;-38
2023/09/06 05:20:28;;;;;;;79.40;6.88;;;;;;;23.07;57.49;100121.72;7309500;19;129162;-36
2023/09/06 05:23:01;;;;;;;64.43;6.30;;;;;;;23.07;56.93;100119.09;7311149;19;129243;-40
2023/09/06 05:25:26;;;;;;;83.80;7.35;;;;;;;23.05;55.30;100118.41;7310611;19;129395;-39
2023/09/06 05:27:57;;;;;;;42.67;5.27;;;;;;;23.03;55.41;100117.69;7307180;19;130367;-41
2023/09/06 05:30:22;;;;;;;41.33;5.25;;;;;;;23.05;55.20;100134.13;7311241;19;129239;-35
2023/09/06 05:32:48;;;;;;;44.57;5.67;;;;;;;23.03;55.09;100115.09;7307563;19;130188;-42
2023/09/06 05:35:13;;;;;;;83.17;7.53;;;;;;;23.05;55.21;100134.13;7309929;19;129773;-36
2023/09/06 05:37:39;;;;;;;29.17;4.10;;;;;;;23.04;55.13;100133.31;7310488;19;131115;-39
2023/09/06 05:40:06;;;;;;;46.90;6.10;;;;;;;23.05;54.91;100131.50;7306473;19;129316;-37
2023/09/06 05:42:32;;;;;;;50.85;5.60;;;;;;;23.03;54.88;100125.56;7308111;19;131807;-37
2023/09/06 05:44:57;;;;;;;82.10;7.13;;;;;;;23.03;55.08;100131.66;7303438;19;129937;-41
2023/09/06 05:47:23;;;;;;;99.90;8.88;;;;;;;23.05;55.48;100136.75;7300880;19;130375;-41
2023/09/06 05:49:51;;;;;;;45.13;5.10;;;;;;;22.91;55.05;100116.16;7306270;19;130244;-39
2023/09/06 05:52:17;;;;;;;79.13;7.95;;;;;;;23.05;55.40;100134.97;7308806;19;130017;-41
2023/09/06 05:54:43;;;;;;;47.03;5.27;;;;;;;22.97;54.84;100118.25;7310180;19;129288;-41
2023/09/06 05:57:08;;;;;;;89.47;7.95;;;;;;;23.05;55.24;100134.13;7308801;19;129406;-40
2023/09/06 05:59:34;;;;;;;29.43;4.97;;;;;;;23.06;55.52;100141.03;7306937;19;130979;-38
2023/09/06 06:01:59;;;;;;;44.63;5.00;;;;;;;23.05;55.97;100140.22;7311554;19;128693;-40
2023/09/06 06:04:25;;;;;;;59.35;6.00;;;;;;;23.05;55.36;100144.63;7308663;19;130014;-41
2023/09/06 06:06:50;;;;;;;28.30;4.50;;;;;;;23.04;55.13;100143.78;7308850;19;130674;-39
2023/09/06 06:09:16;;;;;;;53.08;6.47;;;;;;;23.03;54.92;100142.16;7309390;19;130644;-41
2023/09/06 06:11:41;;;;;;;61.33;5.60;;;;;;;23.04;55.41;100153.44;7311191;19;129868;-41
2023/09/06 06:14:07;;;;;;;25.20;4.37;;;;;;;23.06;54.87;100151.53;7310758;19;129064;-39
2023/09/06 06:16:33;;;;;;;52.75;5.95;;;;;;;23.06;55.04;100151.53;7310544;19;129185;-39
2023/09/06 06:18:58;;;;;;;22.20;3.77;;;;;;;23.04;55.26;100153.44;7308114;19;129404;-38
2023/09/06 06:21:27;;;;;;;95.78;7.88;;;;;;;23.03;55.84;100157.88;7310766;19;130683;-39
2023/09/06 06:23:53;;;;;;;66.78;6.25;;;;;;;23.01;55.20;100149.31;7309835;19;130545;-38
2023/09/06 06:26:19;;;;;;;71.38;6.82;;;;;;;23.03;55.20;100152.63;7306135;19;129402;-38
2023/09/06 06:28:45;;;;;;;47.73;5.67;;;;;;;23.04;55.34;100153.44;7308803;19;129243;-40
2023/09/06 06:31:11;;;;;;;68.40;6.70;;;;;;;23.03;55.50;100157.88;7311466;19;128989;-40
2023/09/06 06:33:38;;;;;;;28.43;4.63;;;;;;;23.03;55.78;100149.19;7312174;19;130195;-41
2023/09/06 06:36:04;;;;;;;64.18;6.00;;;;;;;23.03;55.30;100151.78;7308799;19;130486;-41
2023/09/06 06:38:30;;;;;;;53.53;6.07;;;;;;;23.04;55.32;100158.69;7308678;19;130168;-36
2023/09/06 06:40:55;;;;;;;60.07;5.80;;;;;;;22.89;55.95;100133.84;7310750;19;128902;-40
2023/09/06 06:43:21;;;;;;;55.73;6.50;;;;;;;23.01;55.95;100158.97;7311172;19;129402;-36
2023/09/06 06:45:51;;;;;;;30.07;4.33;;;;;;;23.01;55.63;100165.03;7308735;19;129897;-41
2023/09/06 06:48:16;;;;;;;41.13;5.13;;;;;;;23.03;55.34;100157.88;7307818;19;131255;-41
2023/09/06 06:50:41;;;;;;;69.40;6.27;;;;;;;23.02;55.75;100161.44;7309094;19;129237;-39
2023/09/06 06:53:08;;;;;;;67.32;6.47;;;;;;;23.01;55.97;100169.44;7307968;19;129301;-39
2023/09/06 06:55:33;;;;;;;38.70;4.93;;;;;;;23.01;55.45;100164.22;7309703;19;129885;-39
2023/09/06 06:57:58;;;;;;;34.83;4.50;;;;;;;22.99;56.00;100161.72;7308526;19;129209;-42
2023/09/06 07:00:24;;;;;;;150.23;11.13;;;;;;;23.01;55.62;100165.03;7307627;19;128955;-40
2023/09/06 07:02:49;;;;;;;27.80;4.03;;;;;;;22.99;55.23;100164.34;7312013;19;130290;-40
2023/09/06 07:05:15;;;;;;;26.00;4.30;;;;;;;22.97;55.61;100162.84;7307844;19;130241;-38
2023/09/06 07:07:40;;;;;;;57.53;5.70;;;;;;;22.99;55.79;100158.28;7309160;19;129180;-41
2023/09/06 07:10:07;;;;;;;40.73;4.63;;;;;;;22.97;55.92;100162.84;7307125;19;129661;-37
2023/09/06 07:12:32;;;;;;;53.58;5.72;;;;;;;22.97;56.01;100165.47;7310231;19;131271;-39
2023/09/06 07:14:58;;;;;;;25.57;4.30;;;;;;;22.95;56.60;100164.75;7310179;19;130387;-40
2023/09/06 07:17:23;;;;;;;125.23;10.20;;;;;;;22.97;56.05;100162.84;7308617;19;129266;-41
2023/09/06 07:19:49;;;;;;;39.30;4.90;;;;;;;22.98;56.05;100159.25;7308304;19;129219;-39
2023/09/06 07:22:15;;;;;;;33.53;4.63;;;;;;;22.95;55.97;100170.00;7308767;19;130130;-41
2023/09/06 07:24:40;;;;;;;35.10;4.73;;;;;;;22.96;56.77;100166.41;7309268;19;129315;-40
2023/09/06 07:27:06;;;;;;;80.60;7.00;;;;;;;22.84;56.81;100146.53;7309926;19;129102;-39
2023/09/06 07:29:31;;;;;;;66.20;6.03;;;;;;;22.97;56.14;100173.31;7307890;19;129107;-39
2023/09/06 07:31:58;;;;;;;41.80;4.70;;;;;;;22.94;56.42;100165.72;7309444;19;130267;-42
2023/09/06 07:34:23;;;;;;;47.25;5.30;;;;;;;22.95;56.36;100164.75;7305665;19;131130;-41
2023/09/06 07:36:48;;;;;;;74.53;6.67;;;;;;;22.96;56.74;100167.25;7307433;19;129129;-39
2023/09/06 07:39:14;;;;;;;34.13;4.53;;;;;;;22.96;56.46;100167.25;7306237;19;129213;-41
2023/09/06 07:41:39;;;;;;;39.43;4.73;;;;;;;22.87;56.10;100152.31;7308819;19;129671;-40
2023/09/06 07:44:04;;;;;;;38.23;4.67;;;;;;;22.98;56.46;100164.47;7308322;19;129630;-41
2023/09/06 07:46:30;;;;;;;78.00;6.67;;;;;;;22.97;55.78;100170.69;7307483;19;128877;-41
2023/09/06 07:48:56;;;;;;;32.67;4.28;;;;;;;22.86;56.01;100155.91;7307780;19;129035;-40
2023/09/06 07:51:21;;;;;;;49.00;5.77;;;;;;;22.97;56.02;100170.69;7307199;19;130200;-41
2023/09/06 07:53:47;;;;;;;47.13;5.20;;;;;;;22.98;56.60;100174.97;7308414;19;129712;-41
2023/09/06 07:56:13;;;;;;;59.55;5.57;;;;;;;22.96;56.52;100175.09;7308274;19;129595;-37
2023/09/06 07:58:38;;;;;;;29.40;4.10;;;;;;;22.99;56.56;100171.41;7307392;19;128940;-39
2023/09/06 08:01:04;;;;;;;30.00;4.63;;;;;;;22.97;56.52;100173.31;7308230;19;129266;-40
2023/09/06 08:03:29;;;;;;;69.53;6.33;;;;;;;22.98;56.56;100174.97;7308262;19;129499;-37
2023/09/06 08:05:55;;;;;;;82.00;6.90;;;;;;;22.97;56.75;100171.50;7312207;19;129093;-38
2023/09/06 08:08:20;;;;;;;32.47;4.13;;;;;;;23.00;56.48;100173.06;7313128;19;129528;-37
2023/09/06 08:10:46;;;;;;;34.57;4.83;;;;;;;22.98;57.47;100170.56;7315095;19;129352;-38
2023/09/06 08:13:12;;;;;;;70.55;6.38;;;;;;;23.01;56.62;100172.06;7313934;19;129970;-42
2023/09/06 08:15:37;;;;;;;34.95;4.28;;;;;;;22.99;57.21;100166.97;7316139;19;129617;-40
2023/09/06 08:18:03;;;;;;;41.27;5.13;;;;;;;23.00;57.44;100178.28;7312951;19;128988;-37
2023/09/06 08:20:30;;;;;;;33.72;4.68;;;;;;;23.03;56.62;100172.78;7313863;19;129470;-40
2023/09/06 08:22:56;;;;;;;71.07;6.22;;;;;;;23.03;56.34;100172.78;7314573;19;129428;-42
2023/09/06 08:25:21;;;;;;;53.80;5.20;;;;;;;23.04;57.03;100171.81;7314734;19;129219;-40
2023/09/06 08:27:46;;;;;;;32.60;4.00;;;;;;;22.90;56.29;100145.97;7314004;19;129141;-42
2023/09/06 08:30:15;;;;;;;30.63;4.07;;;;;;;22.89;56.98;100150.38;7310908;19;130976;-41
2023/09/06 08:32:41;;;;;;;62.63;5.88;;;;;;;23.05;57.14;100176.09;7314130;19;130624;-38
2023/09/06 08:35:08;;;;;;;48.92;5.45;;;;;;;22.97;56.46;100157.59;7314787;19;129350;-41
2023/09/06 08:37:34;;;;;;;130.20;10.07;;;;;;;23.06;56.71;100177.75;7311819;19;129229;-45
2023/09/06 08:40:06;;;;;;;52.42;5.38;;;;;;;23.06;56.86;100177.75;7310658;19;132023;-38
2023/09/06 08:42:33;;;;;;;61.13;5.70;;;;;;;23.07;57.17;100175.00;7312491;19;130591;-38
2023/09/06 08:45:00;;;;;;;53.95;5.32;;;;;;;23.06;57.09;100175.97;7313763;19;129601;-38
2023/09/06 08:47:25;;;;;;;;;;;;;;;23.11;59.12;100176.38;7314124;19;128809;-47
2023/09/06 08:49:53;;;;;;;29.70;4.13;;;;;;;23.07;57.37;100166.31;7312733;19;129564;-38
2023/09/06 08:52:18;;;;;;;69.90;5.88;;;;;;;23.03;56.78;100164.91;7312637;19;130349;-39
2023/09/06 08:54:48;;;;;;;42.47;4.50;;;;;;;23.11;56.34;100178.16;7313839;19;129263;-39
2023/09/06 08:57:14;;;;;;;43.83;4.60;;;;;;;23.11;57.02;100170.31;7313571;19;129171;-38
2023/09/06 08:59:40;;;;;;;29.93;3.90;;;;;;;23.09;56.94;100166.97;7311270;19;129118;-37
2023/09/06 09:02:10;;;;;;;59.10;5.40;;;;;;;23.12;56.69;100177.22;7313575;19;131064;-39
2023/09/06 09:04:41;;;;;;;68.65;6.07;;;;;;;22.99;57.21;100160.91;7313245;19;130386;-37
2023/09/06 09:07:10;;;;;;;33.58;4.35;;;;;;;23.11;57.29;100180.78;7311550;19;129419;-40
2023/09/06 09:09:55;;;;;;;40.78;4.53;;;;;;;23.09;58.23;100180.94;7309826;19;129450;-38
2023/09/06 09:12:27;;;;;;;36.13;4.43;;;;;;;23.13;57.09;100174.47;7312255;19;131269;-40
2023/09/06 09:14:56;;;;;;;48.67;4.85;;;;;;;23.10;57.14;100173.91;7311269;19;129235;-37
2023/09/06 09:17:26;;;;;;;97.05;7.32;;;;;;;23.11;56.75;100170.31;7309560;19;129320;-40
2023/09/06 09:19:57;;;;;;;32.58;4.15;;;;;;;23.12;57.93;100174.59;7311861;19;130412;-37
2023/09/06 09:22:35;;;;;;;24.60;3.60;;;;;;;23.10;56.90;100176.53;7312812;19;129380;-40
2023/09/06 09:25:14;;;;;;;55.72;5.70;;;;;;;23.07;57.57;100175.00;7312434;19;130027;-40
2023/09/06 09:27:39;;;;;;;50.15;4.78;;;;;;;23.13;56.87;100184.13;7308820;19;129221;-39
2023/09/06 09:30:07;;;;;;;45.43;4.70;;;;;;;23.08;56.57;100181.06;7309676;19;129559;-41
2023/09/06 09:32:32;;;;;;;50.58;5.05;;;;;;;23.11;56.27;100175.56;7312631;19;130374;-40
2023/09/06 09:34:57;;;;;;;31.93;3.97;;;;;;;23.11;56.56;100178.16;7313438;19;132161;-40
2023/09/06 09:37:23;;;;;;;53.78;5.10;;;;;;;23.09;56.56;100180.09;7308849;19;128846;-39
2023/09/06 09:39:48;;;;;;;55.87;5.23;;;;;;;23.08;56.83;100181.06;7308376;19;129333;-41
2023/09/06 09:42:14;;;;;;;33.57;3.70;;;;;;;23.05;57.38;100170.84;7310646;19;129812;-40
2023/09/06 09:44:40;;;;;;;41.50;4.93;;;;;;;23.11;57.07;100176.38;7309786;19;128756;-40
2023/09/06 09:47:09;;;;;;;27.85;4.28;;;;;;;23.11;57.67;100186.03;7309652;19;129410;-40
2023/09/06 09:49:35;;;;;;;68.88;6.05;;;;;;;23.14;56.67;100191.00;7308277;19;130849;-41
2023/09/06 09:52:00;;;;;;;49.55;4.55;;;;;;;23.12;56.82;100183.28;7312970;19;130455;-39
2023/09/06 09:54:30;;;;;;;31.30;4.17;;;;;;;23.10;57.13;100179.16;7312589;19;129769;-36
2023/09/06 09:57:05;;;;;;;43.90;4.53;;;;;;;23.11;57.75;100183.41;7312437;19;129281;-41
2023/09/06 09:59:33;;;;;;;59.67;5.53;;;;;;;23.09;57.19;100167.81;7306234;19;130880;-41
2023/09/06 10:02:00;;;;;;;76.07;5.95;;;;;;;23.11;57.01;100175.56;7311482;19;129734;-38
2023/09/06 10:04:28;;;;;;;35.15;3.83;;;;;;;23.11;56.67;100175.56;7312183;19;129286;-40
2023/09/06 10:06:56;;;;;;;31.38;3.92;;;;;;;23.11;57.27;100170.31;7310301;19;129277;-41
2023/09/06 10:09:22;;;;;;;34.70;4.05;;;;;;;23.12;56.72;100164.13;7308949;19;129420;-38
2023/09/06 10:11:50;;;;;;;83.10;6.57;;;;;;;23.11;57.16;100171.16;7309226;19;129870;-39
2023/09/06 10:14:18;;;;;;;32.67;3.65;;;;;;;23.11;57.47;100167.69;7312322;19;129266;-41
2023/09/06 10:16:45;;;;;;;60.85;5.50;;;;;;;23.13;56.86;100168.38;7312245;19;128928;-39
2023/09/06 10:19:11;;;;;;;;;;;;;;;23.08;59.22;100157.47;7308959;19;129233;-40
2023/09/06 10:21:38;;;;;;;70.07;5.97;;;;;;;23.11;57.08;100171.16;7310251;19;129509;-40
2023/09/06 10:24:15;;;;;;;37.70;3.97;;;;;;;23.08;57.19;100160.94;7310190;19;129418;-38
2023/09/06 10:26:42;;;;;;;47.08;4.63;;;;;;;23.01;56.65;100141.44;7311068;19;131538;-40
2023/09/06 10:29:11;;;;;;;33.33;3.78;;;;;;;23.14;56.86;100170.03;7307106;19;131053;-40
2023/09/06 10:31:52;;;;;;;32.72;4.25;;;;;;;23.11;58.50;100171.16;7310042;19;131111;-41
2023/09/06 10:34:19;;;;;;;49.03;4.57;;;;;;;23.10;56.44;100155.53;7309386;19;129536;-40
2023/09/06 10:36:58;;;;;;;51.60;4.78;;;;;;;23.14;57.18;100167.41;7310763;19;129104;-39
2023/09/06 10:39:28;;;;;;;31.65;4.00;;;;;;;23.11;58.03;100173.75;7307539;19;129197;-39
2023/09/06 10:42:11;;;;;;;33.08;4.10;;;;;;;23.13;58.48;100163.13;7310162;19;130676;-40
2023/09/06 10:45:00;;;;;;;50.75;4.85;;;;;;;23.11;58.78;100165.91;7311366;19;129476;-38
2023/09/06 10:47:31;;;;;;;30.95;4.00;;;;;;;23.11;57.10;100165.06;7307569;19;129106;-42
2023/09/06 10:50:12;;;;;;;37.65;4.28;;;;;;;23.11;58.45;100154.56;7307103;19;129691;-40
2023/09/06 10:52:53;;;;;;;49.35;4.78;;;;;;;23.12;58.93;100153.63;7310135;19;129527;-39
2023/09/06 10:55:22;;;;;;;40.92;4.50;;;;;;;23.13;57.35;100157.88;7310510;19;129141;-41
2023/09/06 10:57:58;;;;;;;55.65;4.80;;;;;;;23.12;57.76;100156.25;7307005;19;129757;-40
2023/09/06 11:00:30;;;;;;;38.65;4.43;;;;;;;23.13;57.67;100155.25;7310495;19;129212;-38
2023/09/06 11:03:08;;;;;;;42.70;4.47;;;;;;;23.17;57.96;100154.03;7310581;19;130421;-42
2023/09/06 11:05:58;;;;;;;37.75;4.03;;;;;;;23.14;57.34;100152.50;7309672;19;129656;-38
2023/09/06 11:08:29;;;;;;;34.92;3.83;;;;;;;23.16;57.91;100153.22;7307911;19;129242;-40
2023/09/06 11:11:07;;;;;;;25.15;3.15;;;;;;;23.13;58.50;100144.78;7308579;19;130868;-37